Time;durP1;ratioP1;P1;durP2;ratioP2;P2;SDS_P1;SDS_P2;PMS_P1;PMS_P2;Temp;Humidity;BMP_temperature;BMP_pressure;BME280_temperature;BME280_humidity;BME280_pressure;Samples;Min_cycle;Max_cycle;Signal;HPM_P1;HPM_P2
2022/08/14 00:01:29;;;;;;;9.13;6.57;;;;;;;;;;6203246;23;20009;-85
2022/08/14 00:03:55;;;;;;;11.63;7.30;;;;;;;;;;6203177;23;20585;-86
2022/08/14 00:06:21;;;;;;;12.18;6.68;;;;;;;;;;6206115;23;20009;-85
2022/08/14 00:08:47;;;;;;;14.45;6.15;;;;;;;;;;6204586;23;20084;-85
2022/08/14 00:11:13;;;;;;;12.23;6.68;;;;;;;;;;6204594;23;20063;-85
2022/08/14 00:13:47;;;;;;;10.57;7.35;;;;;;;;;;6201265;23;20004;-85
2022/08/14 00:16:13;;;;;;;10.15;6.90;;;;;;;;;;6200377;23;20005;-86
2022/08/14 00:18:40;;;;;;;10.48;6.68;;;;;;;;;;6203395;23;20396;-85
2022/08/14 00:21:06;;;;;;;14.52;6.43;;;;;;;;;;6203181;23;20009;-85
2022/08/14 00:23:39;;;;;;;10.20;6.65;;;;;;;;;;6203182;23;20057;-85
2022/08/14 00:26:05;;;;;;;8.68;6.55;;;;;;;;;;6203760;23;20019;-85
2022/08/14 00:28:31;;;;;;;10.45;7.05;;;;;;;;;;6200553;23;20349;-85
2022/08/14 00:30:58;;;;;;;14.35;6.97;;;;;;;;;;6204980;23;20026;-85
2022/08/14 00:33:25;;;;;;;14.05;7.07;;;;;;;;;;6203997;23;20005;-85
2022/08/14 00:35:52;;;;;;;11.40;6.85;;;;;;;;;;6204902;22;20036;-85
2022/08/14 00:38:18;;;;;;;14.10;7.60;;;;;;;;;;6201751;23;20016;-85
2022/08/14 00:40:44;;;;;;;16.70;7.57;;;;;;;;;;6204852;23;20043;-85
2022/08/14 00:43:10;;;;;;;9.85;7.35;;;;;;;;;;6203302;23;20004;-85
2022/08/14 00:45:37;;;;;;;10.77;7.18;;;;;;;;;;6203687;23;20877;-85
2022/08/14 00:48:03;;;;;;;17.65;7.05;;;;;;;;;;6202111;23;20017;-85
2022/08/14 00:50:29;;;;;;;15.93;6.88;;;;;;;;;;6204011;23;20008;-85
2022/08/14 00:52:56;;;;;;;12.23;6.72;;;;;;;;;;6203907;23;20027;-85
2022/08/14 00:55:22;;;;;;;12.60;7.38;;;;;;;;;;6203090;23;20009;-85
2022/08/14 00:58:29;;;;;;;12.10;8.07;;;;;;;;;;6203221;23;20066;-85
2022/08/14 01:00:35;;;;;;;12.02;8.18;;;;;;;;;;6205839;23;20628;-85
2022/08/14 01:03:01;;;;;;;14.63;8.00;;;;;;;;;;6201866;23;20095;-85
2022/08/14 01:05:28;;;;;;;9.15;7.55;;;;;;;;;;6205309;23;20457;-84
2022/08/14 01:07:58;;;;;;;10.85;8.10;;;;;;;;;;6204227;23;20016;-86
2022/08/14 01:10:49;;;;;;;12.27;8.13;;;;;;;;;;6202578;23;20004;-86
2022/08/14 01:13:13;;;;;;;12.23;8.95;;;;;;;;;;6204852;23;20005;-86
2022/08/14 01:15:39;;;;;;;11.77;7.97;;;;;;;;;;6202396;23;20008;-86
2022/08/14 01:21:10;;;;;;;12.15;9.13;;;;;;;;;;6204287;23;20023;-86
2022/08/14 01:23:38;;;;;;;12.82;8.70;;;;;;;;;;6202750;23;20034;-86
2022/08/14 01:26:04;;;;;;;21.17;8.63;;;;;;;;;;6203454;23;20009;-86
2022/08/14 01:28:33;;;;;;;15.10;8.77;;;;;;;;;;6204116;23;20314;-86
2022/08/14 01:30:59;;;;;;;13.55;8.40;;;;;;;;;;6204991;23;20358;-86
2022/08/14 01:33:30;;;;;;;14.77;9.05;;;;;;;;;;6204650;23;20444;-86
2022/08/14 01:35:57;;;;;;;13.40;9.30;;;;;;;;;;6203478;22;20070;-86
2022/08/14 01:38:33;;;;;;;16.98;9.32;;;;;;;;;;6202663;23;20330;-86
2022/08/14 01:41:13;;;;;;;14.07;8.40;;;;;;;;;;6202084;23;20016;-86
2022/08/14 01:43:43;;;;;;;16.35;9.23;;;;;;;;;;6201427;23;20095;-85
2022/08/14 01:46:10;;;;;;;20.55;9.02;;;;;;;;;;6202105;23;20086;-85
2022/08/14 01:48:37;;;;;;;15.65;8.98;;;;;;;;;;6203517;23;20016;-85
2022/08/14 01:51:03;;;;;;;15.00;9.65;;;;;;;;;;6202204;23;20394;-86
2022/08/14 01:53:30;;;;;;;14.20;9.38;;;;;;;;;;6204969;23;20009;-85
2022/08/14 01:55:57;;;;;;;16.13;9.65;;;;;;;;;;6203086;23;20515;-85
2022/08/14 01:58:26;;;;;;;15.18;10.40;;;;;;;;;;6201829;23;20028;-85
2022/08/14 02:00:57;;;;;;;18.35;10.20;;;;;;;;;;6206004;23;20209;-85
2022/08/14 02:03:24;;;;;;;13.85;10.20;;;;;;;;;;6203577;23;20591;-85
2022/08/14 02:05:50;;;;;;;17.23;9.65;;;;;;;;;;6204097;23;20578;-85
2022/08/14 02:08:16;;;;;;;20.27;10.80;;;;;;;;;;6205270;23;20018;-85
2022/08/14 02:10:43;;;;;;;13.95;10.00;;;;;;;;;;6204214;23;20643;-85
2022/08/14 02:13:10;;;;;;;13.88;10.45;;;;;;;;;;6204031;23;20063;-84
2022/08/14 02:15:39;;;;;;;14.68;10.65;;;;;;;;;;6202828;23;20008;-85
2022/08/14 02:18:06;;;;;;;16.13;10.55;;;;;;;;;;6204042;23;20031;-85
2022/08/14 02:20:32;;;;;;;20.23;10.82;;;;;;;;;;6205078;23;20009;-85
2022/08/14 02:23:02;;;;;;;14.65;10.65;;;;;;;;;;6204741;23;20005;-85
2022/08/14 02:25:30;;;;;;;17.45;10.30;;;;;;;;;;6205909;23;20092;-85
2022/08/14 02:27:56;;;;;;;16.80;10.98;;;;;;;;;;6203029;23;20028;-85
2022/08/14 02:30:25;;;;;;;19.13;10.18;;;;;;;;;;6204648;23;20001;-85
2022/08/14 02:32:52;;;;;;;16.55;11.13;;;;;;;;;;6204687;23;20516;-85
2022/08/14 02:35:18;;;;;;;17.52;12.07;;;;;;;;;;6206769;22;20044;-85
2022/08/14 02:37:46;;;;;;;16.83;11.07;;;;;;;;;;6205394;23;20554;-85
2022/08/14 02:40:13;;;;;;;22.35;10.93;;;;;;;;;;6205776;23;20005;-85
2022/08/14 02:42:39;;;;;;;19.67;10.95;;;;;;;;;;6205029;23;20000;-85
2022/08/14 02:45:06;;;;;;;20.73;11.02;;;;;;;;;;6203994;23;20074;-85
2022/08/14 02:47:33;;;;;;;18.65;12.13;;;;;;;;;;6204624;23;20015;-85
2022/08/14 02:49:59;;;;;;;15.95;10.23;;;;;;;;;;6206176;23;20068;-85
2022/08/14 02:52:26;;;;;;;14.13;10.80;;;;;;;;;;6203364;23;20028;-85
2022/08/14 02:54:52;;;;;;;21.13;11.02;;;;;;;;;;6202660;23;20075;-85
2022/08/14 02:57:18;;;;;;;15.73;10.52;;;;;;;;;;6204528;23;20000;-85
2022/08/14 02:59:45;;;;;;;17.58;10.30;;;;;;;;;;6205296;23;20055;-85
2022/08/14 03:02:11;;;;;;;16.88;11.32;;;;;;;;;;6203293;23;20336;-85
2022/08/14 03:04:38;;;;;;;16.40;10.88;;;;;;;;;;6206742;23;20008;-85
2022/08/14 03:07:08;;;;;;;17.83;11.23;;;;;;;;;;6205436;23;20097;-85
2022/08/14 03:09:38;;;;;;;22.65;10.85;;;;;;;;;;6206252;23;20516;-85
2022/08/14 03:12:04;;;;;;;20.15;12.23;;;;;;;;;;6204033;23;20009;-85
2022/08/14 03:14:34;;;;;;;15.63;11.25;;;;;;;;;;6205009;23;20640;-85
2022/08/14 03:17:14;;;;;;;20.10;11.35;;;;;;;;;;6244797;22;20028;-85
2022/08/14 03:19:40;;;;;;;19.55;10.80;;;;;;;;;;6267650;22;20003;-85
2022/08/14 03:22:06;;;;;;;15.20;10.85;;;;;;;;;;6265263;22;20356;-86
2022/08/14 03:27:47;;;;;;;15.85;10.90;;;;;;;;;;6159847;22;20499;-85
2022/08/14 03:30:13;;;;;;;15.52;11.27;;;;;;;;;;6266878;22;20073;-86
2022/08/14 03:32:39;;;;;;;18.23;11.35;;;;;;;;;;6268914;22;19996;-87
2022/08/14 03:35:13;;;;;;;16.40;11.48;;;;;;;;;;6269345;22;20418;-86
2022/08/14 03:37:39;;;;;;;16.50;11.32;;;;;;;;;;6266541;22;20034;-86
2022/08/14 03:40:06;;;;;;;15.50;11.10;;;;;;;;;;6268631;22;20007;-86
2022/08/14 03:42:34;;;;;;;19.00;11.32;;;;;;;;;;6265548;22;20011;-86
2022/08/14 03:45:00;;;;;;;15.90;10.57;;;;;;;;;;6268215;22;20424;-85
2022/08/14 03:47:27;;;;;;;14.95;10.88;;;;;;;;;;6269103;22;20000;-86
2022/08/14 03:49:53;;;;;;;15.20;10.63;;;;;;;;;;6268363;22;20082;-85
2022/08/14 03:52:19;;;;;;;16.42;11.05;;;;;;;;;;6267120;22;20007;-86
2022/08/14 03:54:45;;;;;;;16.45;11.73;;;;;;;;;;6267581;22;20034;-86
2022/08/14 03:57:11;;;;;;;19.75;12.00;;;;;;;;;;6266442;22;20004;-86
2022/08/14 03:59:37;;;;;;;17.00;11.55;;;;;;;;;;6267885;22;20007;-86
2022/08/14 04:02:10;;;;;;;16.80;11.40;;;;;;;;;;6269691;22;20011;-86
2022/08/14 04:04:36;;;;;;;17.40;11.05;;;;;;;;;;6267396;22;20019;-86
2022/08/14 04:07:03;;;;;;;15.60;11.40;;;;;;;;;;6267290;22;20019;-86
2022/08/14 04:09:29;;;;;;;15.70;11.23;;;;;;;;;;6267589;22;20031;-86
2022/08/14 04:11:55;;;;;;;17.38;11.30;;;;;;;;;;6268375;22;20007;-86
2022/08/14 04:14:24;;;;;;;16.35;12.25;;;;;;;;;;6267323;22;20011;-86
2022/08/14 04:16:56;;;;;;;18.55;11.10;;;;;;;;;;6268623;22;20407;-86
2022/08/14 04:19:22;;;;;;;16.83;11.93;;;;;;;;;;6273185;22;20014;-86
2022/08/14 04:21:49;;;;;;;16.85;11.45;;;;;;;;;;6273300;22;20424;-85
2022/08/14 04:24:16;;;;;;;15.90;11.32;;;;;;;;;;6271055;22;20014;-87
2022/08/14 04:26:46;;;;;;;14.82;11.23;;;;;;;;;;6298416;22;20071;-86
2022/08/14 04:29:12;;;;;;;15.98;11.02;;;;;;;;;;6272222;22;20789;-86
2022/08/14 04:31:39;;;;;;;17.45;12.02;;;;;;;;;;6273078;22;20007;-86
2022/08/14 04:34:05;;;;;;;20.95;10.85;;;;;;;;;;6272017;22;20015;-86
2022/08/14 04:43:34;;;;;;;17.83;10.55;;;;;;;;;;6273060;22;20090;-87
2022/08/14 04:44:47;;;;;;;16.83;11.07;;;;;;;;;;6300474;22;20022;-86
2022/08/14 04:49:58;;;;;;;14.98;10.18;;;;;;;;;;6300630;22;20018;-88
2022/08/14 04:52:24;;;;;;;19.38;11.95;;;;;;;;;;6273663;22;20560;-88
2022/08/14 04:54:50;;;;;;;15.60;10.25;;;;;;;;;;6273110;22;20428;-88
2022/08/14 04:57:16;;;;;;;16.83;11.18;;;;;;;;;;6299808;22;20009;-87
2022/08/14 04:59:42;;;;;;;17.30;11.48;;;;;;;;;;6300612;22;20014;-89
2022/08/14 05:02:08;;;;;;;14.57;11.25;;;;;;;;;;6273254;22;20011;-88
2022/08/14 05:04:34;;;;;;;14.23;11.07;;;;;;;;;;6273426;22;20011;-88
2022/08/14 05:07:00;;;;;;;16.85;10.75;;;;;;;;;;6301756;22;20003;-88
2022/08/14 05:09:26;;;;;;;17.75;11.07;;;;;;;;;;6272346;22;20011;-88
2022/08/14 05:11:52;;;;;;;15.30;10.45;;;;;;;;;;6272674;22;20007;-89
2022/08/14 05:14:21;;;;;;;16.02;10.88;;;;;;;;;;6272623;22;20070;-88
2022/08/14 05:16:47;;;;;;;20.00;12.35;;;;;;;;;;6266739;22;20447;-89
2022/08/14 05:19:13;;;;;;;22.95;11.52;;;;;;;;;;6267731;22;20102;-87
2022/08/14 05:21:40;;;;;;;14.45;9.88;;;;;;;;;;6269528;22;20344;-89
2022/08/14 05:24:07;;;;;;;14.77;10.32;;;;;;;;;;6268896;22;20057;-87
2022/08/14 05:26:33;;;;;;;17.20;11.15;;;;;;;;;;6268147;22;20393;-89
2022/08/14 05:28:59;;;;;;;16.42;10.57;;;;;;;;;;6266718;22;20106;-88
2022/08/14 05:31:25;;;;;;;13.43;10.43;;;;;;;;;;6267585;22;20078;-88
2022/08/14 05:33:51;;;;;;;14.50;10.10;;;;;;;;;;6269001;22;20000;-89
2022/08/14 05:36:17;;;;;;;16.88;10.85;;;;;;;;;;6268747;22;20373;-87
2022/08/14 05:38:46;;;;;;;17.08;10.57;;;;;;;;;;6270637;22;20000;-87
2022/08/14 05:41:13;;;;;;;18.58;9.75;;;;;;;;;;6267334;22;20018;-88
2022/08/14 05:43:40;;;;;;;15.32;9.85;;;;;;;;;;6269107;22;20004;-87
2022/08/14 05:46:07;;;;;;;18.75;9.88;;;;;;;;;;6266824;22;20012;-89
2022/08/14 05:48:33;;;;;;;18.75;9.60;;;;;;;;;;6268220;22;20026;-89
2022/08/14 05:50:59;;;;;;;14.90;9.73;;;;;;;;;;6266962;22;20421;-88
2022/08/14 05:53:26;;;;;;;18.38;10.43;;;;;;;;;;6267654;22;20042;-88
2022/08/14 05:55:54;;;;;;;14.15;9.68;;;;;;;;;;6266769;22;20012;-88
2022/08/14 05:58:20;;;;;;;12.55;10.05;;;;;;;;;;6265449;22;20094;-89
2022/08/14 06:00:46;;;;;;;14.23;9.93;;;;;;;;;;6267794;22;20010;-88
2022/08/14 06:03:15;;;;;;;16.10;10.07;;;;;;;;;;6265800;22;20029;-88
2022/08/14 06:05:41;;;;;;;15.95;10.85;;;;;;;;;;6268093;22;20087;-87
2022/08/14 06:08:28;;;;;;;17.65;10.13;;;;;;;;;;6267536;22;20018;-88
2022/08/14 06:10:56;;;;;;;15.32;10.05;;;;;;;;;;6267458;22;20003;-89
2022/08/14 06:13:22;;;;;;;12.48;9.93;;;;;;;;;;6265234;22;20004;-88
2022/08/14 06:15:49;;;;;;;16.60;9.85;;;;;;;;;;6264772;22;20011;-89
2022/08/14 06:18:16;;;;;;;14.82;9.75;;;;;;;;;;6272526;22;20015;-88
2022/08/14 06:20:43;;;;;;;14.55;10.27;;;;;;;;;;6272365;22;20065;-88
2022/08/14 06:23:09;;;;;;;15.90;9.98;;;;;;;;;;6299680;22;20003;-88
2022/08/14 06:25:35;;;;;;;12.77;10.02;;;;;;;;;;6274058;22;20697;-88
2022/08/14 06:28:01;;;;;;;11.80;9.52;;;;;;;;;;6271703;22;20016;-89
2022/08/14 06:30:28;;;;;;;13.68;9.77;;;;;;;;;;6273231;22;20447;-89
2022/08/14 06:32:55;;;;;;;16.38;9.25;;;;;;;;;;6271307;22;20066;-89
2022/08/14 06:35:22;;;;;;;15.35;10.07;;;;;;;;;;6273952;22;19999;-89
2022/08/14 06:37:53;;;;;;;17.27;10.95;;;;;;;;;;6272985;22;20086;-88
2022/08/14 06:40:23;;;;;;;12.30;10.07;;;;;;;;;;6272770;22;20010;-88
2022/08/14 06:42:49;;;;;;;16.25;10.77;;;;;;;;;;6270063;22;20073;-87
2022/08/14 06:45:16;;;;;;;13.55;9.88;;;;;;;;;;6271210;22;20335;-87
2022/08/14 06:47:43;;;;;;;15.07;9.00;;;;;;;;;;6271741;22;20007;-88
2022/08/14 06:50:10;;;;;;;16.10;9.88;;;;;;;;;;6269519;22;20003;-87
2022/08/14 06:52:37;;;;;;;16.48;9.38;;;;;;;;;;6270480;22;20453;-88
2022/08/14 06:55:04;;;;;;;18.05;9.40;;;;;;;;;;6299318;22;20484;-87
2022/08/14 06:57:37;;;;;;;15.07;10.18;;;;;;;;;;6272188;22;20034;-87
2022/08/14 07:00:11;;;;;;;12.05;9.52;;;;;;;;;;6300478;22;20355;-86
2022/08/14 07:08:13;;;;;;;16.17;10.00;;;;;;;;;;6300761;22;20064;-86
2022/08/14 07:10:39;;;;;;;13.27;9.35;;;;;;;;;;6271128;22;21062;-86
2022/08/14 07:13:05;;;;;;;12.48;8.90;;;;;;;;;;6271972;22;20042;-87
2022/08/14 07:15:32;;;;;;;15.52;9.30;;;;;;;;;;6270363;22;20009;-86
2022/08/14 07:18:05;;;;;;;13.20;7.85;;;;;;;;;;6267280;22;20536;-87
2022/08/14 07:20:31;;;;;;;14.70;8.15;;;;;;;;;;6268340;22;20007;-86
2022/08/14 07:22:59;;;;;;;9.30;8.07;;;;;;;;;;6266434;22;20031;-87
2022/08/14 07:25:25;;;;;;;10.57;7.75;;;;;;;;;;6266154;22;20347;-87
2022/08/14 07:27:51;;;;;;;11.45;7.38;;;;;;;;;;6266482;22;20008;-86
2022/08/14 07:30:17;;;;;;;10.85;7.35;;;;;;;;;;6265969;22;19999;-88
2022/08/14 07:32:43;;;;;;;12.68;7.63;;;;;;;;;;6262701;22;20007;-88
2022/08/14 07:35:09;;;;;;;10.77;7.47;;;;;;;;;;6266127;22;20015;-87
2022/08/14 07:37:35;;;;;;;9.15;7.03;;;;;;;;;;6264380;22;20317;-87
2022/08/14 07:40:03;;;;;;;9.68;7.45;;;;;;;;;;6267644;22;20010;-87
2022/08/14 07:42:29;;;;;;;12.77;6.93;;;;;;;;;;6262330;22;20018;-87
2022/08/14 07:44:55;;;;;;;8.52;7.10;;;;;;;;;;6263340;22;20026;-86
2022/08/14 07:47:21;;;;;;;6.93;6.22;;;;;;;;;;6265080;22;20035;-87
2022/08/14 07:49:58;;;;;;;9.30;6.97;;;;;;;;;;6265007;22;20012;-87
2022/08/14 07:52:24;;;;;;;14.65;7.53;;;;;;;;;;6266915;22;20476;-86
2022/08/14 07:54:50;;;;;;;9.77;6.78;;;;;;;;;;6265248;22;20011;-87
2022/08/14 07:57:16;;;;;;;7.20;6.50;;;;;;;;;;6265511;22;20201;-87
2022/08/14 07:59:43;;;;;;;9.02;7.15;;;;;;;;;;6265198;22;20046;-87
2022/08/14 08:02:14;;;;;;;10.35;6.60;;;;;;;;;;6264782;22;20451;-87
2022/08/14 08:04:43;;;;;;;11.88;6.00;;;;;;;;;;6263380;22;20008;-88
2022/08/14 08:07:09;;;;;;;12.95;6.63;;;;;;;;;;6266068;22;20049;-87
2022/08/14 08:09:35;;;;;;;8.45;6.00;;;;;;;;;;6263822;22;20016;-88
2022/08/14 08:12:03;;;;;;;7.03;6.32;;;;;;;;;;6264796;22;20008;-88
2022/08/14 08:14:30;;;;;;;11.35;6.53;;;;;;;;;;6263674;22;20028;-88
2022/08/14 08:17:02;;;;;;;14.00;6.95;;;;;;;;;;6266919;22;20039;-87
2022/08/14 08:19:30;;;;;;;13.38;7.05;;;;;;;;;;6295920;22;20090;-87
2022/08/14 08:21:57;;;;;;;8.27;6.10;;;;;;;;;;6297852;22;20331;-87
2022/08/14 08:24:23;;;;;;;6.78;5.72;;;;;;;;;;6270130;22;20022;-88
2022/08/14 08:26:49;;;;;;;12.43;6.65;;;;;;;;;;6269502;22;20039;-88
2022/08/14 08:29:19;;;;;;;11.82;5.72;;;;;;;;;;6270403;22;20007;-88
2022/08/14 08:31:48;;;;;;;10.13;6.20;;;;;;;;;;6270486;22;20056;-91
2022/08/14 08:34:14;;;;;;;7.22;6.07;;;;;;;;;;6270058;22;20003;-92
2022/08/14 08:36:41;;;;;;;7.53;5.35;;;;;;;;;;6271660;22;20084;-93
2022/08/14 08:39:07;;;;;;;7.82;5.90;;;;;;;;;;6270830;22;20502;-92
2022/08/14 08:41:44;;;;;;;14.70;5.65;;;;;;;;;;6271933;22;20484;-92
2022/08/14 08:44:10;;;;;;;8.05;5.43;;;;;;;;;;6269254;22;20039;-92
2022/08/14 08:46:37;;;;;;;7.30;5.38;;;;;;;;;;6271867;22;20007;-92
2022/08/14 08:49:03;;;;;;;10.38;5.28;;;;;;;;;;6271129;22;20053;-93
2022/08/14 08:51:30;;;;;;;8.48;5.80;;;;;;;;;;6270551;22;20094;-90
2022/08/14 08:54:04;;;;;;;11.35;5.75;;;;;;;;;;6269494;22;20847;-89
2022/08/14 08:56:37;;;;;;;6.57;5.40;;;;;;;;;;6296947;22;19999;-90
2022/08/14 08:59:14;;;;;;;5.95;5.35;;;;;;;;;;6268849;22;20007;-89
2022/08/14 09:01:40;;;;;;;5.22;4.72;;;;;;;;;;6269729;22;20014;-89
2022/08/14 09:04:06;;;;;;;7.60;5.03;;;;;;;;;;6271015;22;20066;-89
2022/08/14 09:06:42;;;;;;;6.38;5.43;;;;;;;;;;6269874;22;20007;-90
2022/08/14 09:09:28;;;;;;;9.90;5.35;;;;;;;;;;6272088;22;20011;-89
2022/08/14 09:11:57;;;;;;;7.93;5.50;;;;;;;;;;6299083;22;20484;-89
2022/08/14 09:14:24;;;;;;;6.15;5.55;;;;;;;;;;6269818;22;20003;-89
2022/08/14 09:16:50;;;;;;;6.32;5.72;;;;;;;;;;6267065;22;20169;-90
2022/08/14 09:19:17;;;;;;;8.13;5.55;;;;;;;;;;6296032;22;20015;-89
2022/08/14 09:21:43;;;;;;;6.72;5.10;;;;;;;;;;6271154;22;20090;-89
2022/08/14 09:24:09;;;;;;;8.48;4.95;;;;;;;;;;6271145;22;20004;-89
2022/08/14 09:26:36;;;;;;;5.63;4.78;;;;;;;;;;6270175;22;20455;-90
2022/08/14 09:29:03;;;;;;;8.45;5.38;;;;;;;;;;6270524;22;20010;-90
2022/08/14 09:31:30;;;;;;;6.43;5.45;;;;;;;;;;6271364;22;20034;-90
2022/08/14 09:34:05;;;;;;;6.00;4.80;;;;;;;;;;6273161;22;20007;-90
2022/08/14 09:36:31;;;;;;;;;;;;;;;;;;6272594;22;20097;-89
2022/08/14 09:39:06;;;;;;;7.53;5.15;;;;;;;;;;6273646;22;19926;-90
2022/08/14 09:41:32;;;;;;;;;;;;;;;;;;6299143;22;20006;-89
2022/08/14 09:44:05;;;;;;;8.07;5.65;;;;;;;;;;6273516;22;19951;-89
2022/08/14 09:46:31;;;;;;;7.40;5.63;;;;;;;;;;6271320;22;20015;-90
2022/08/14 09:49:01;;;;;;;7.10;5.28;;;;;;;;;;6272043;22;20461;-89
2022/08/14 09:51:28;;;;;;;8.02;4.90;;;;;;;;;;6298563;22;19999;-89
2022/08/14 09:54:05;;;;;;;6.18;4.78;;;;;;;;;;6273294;22;20443;-90
2022/08/14 09:56:42;;;;;;;7.95;5.45;;;;;;;;;;6297733;22;20076;-89
2022/08/14 09:59:13;;;;;;;5.95;5.43;;;;;;;;;;6270723;22;20011;-89
2022/08/14 10:01:40;;;;;;;6.10;5.50;;;;;;;;;;6271632;22;20366;-89
2022/08/14 10:04:06;;;;;;;5.75;5.25;;;;;;;;;;6299084;22;20317;-89
2022/08/14 10:06:43;;;;;;;8.35;5.88;;;;;;;;;;6299705;22;20007;-90
2022/08/14 10:09:10;;;;;;;8.57;5.97;;;;;;;;;;6296148;22;20030;-90
2022/08/14 10:11:37;;;;;;;9.07;6.10;;;;;;;;;;6270547;22;20010;-89
2022/08/14 10:14:17;;;;;;;8.73;6.00;;;;;;;;;;6269236;22;20007;-89
2022/08/14 10:16:44;;;;;;;6.68;6.05;;;;;;;;;;6268294;22;20027;-89
2022/08/14 10:19:12;;;;;;;12.07;5.65;;;;;;;;;;6296666;22;20019;-88
2022/08/14 10:21:38;;;;;;;13.27;5.90;;;;;;;;;;6298873;22;20003;-90
2022/08/14 10:24:08;;;;;;;6.68;5.63;;;;;;;;;;6271481;22;20103;-90
2022/08/14 10:26:34;;;;;;;7.05;5.43;;;;;;;;;;6298446;22;20007;-91
2022/08/14 10:29:08;;;;;;;6.00;5.32;;;;;;;;;;6273646;22;20043;-91
2022/08/14 10:31:35;;;;;;;8.35;5.85;;;;;;;;;;6272429;22;20007;-91
2022/08/14 10:34:01;;;;;;;5.45;4.95;;;;;;;;;;6274287;22;20004;-91
2022/08/14 10:36:31;;;;;;;5.50;5.00;;;;;;;;;;6274118;22;20049;-90
2022/08/14 10:38:58;;;;;;;12.70;5.10;;;;;;;;;;6301587;22;20070;-91
2022/08/14 10:41:34;;;;;;;5.38;4.88;;;;;;;;;;6273977;22;20014;-90
2022/08/14 10:44:08;;;;;;;5.90;4.30;;;;;;;;;;6274206;22;20014;-90
2022/08/14 10:46:42;;;;;;;5.53;5.00;;;;;;;;;;6300571;22;20042;-91
2022/08/14 10:49:16;;;;;;;7.35;4.85;;;;;;;;;;6273493;22;20007;-91
2022/08/14 10:51:42;;;;;;;6.57;4.82;;;;;;;;;;6272873;22;20030;-90
2022/08/14 10:54:09;;;;;;;5.68;4.93;;;;;;;;;;6273117;22;20030;-91
2022/08/14 10:56:35;;;;;;;6.30;5.05;;;;;;;;;;6274197;22;20011;-89
2022/08/14 10:59:08;;;;;;;7.55;4.97;;;;;;;;;;6274366;22;20011;-88
2022/08/14 11:01:36;;;;;;;5.32;4.82;;;;;;;;;;6273282;22;20012;-89
2022/08/14 11:04:05;;;;;;;8.40;5.45;;;;;;;;;;6274675;22;20068;-91
2022/08/14 11:06:32;;;;;;;7.65;4.38;;;;;;;;;;6271052;22;20018;-90
2022/08/14 11:08:58;;;;;;;5.80;5.13;;;;;;;;;;6300773;22;20003;-90
2022/08/14 11:11:28;;;;;;;6.88;5.05;;;;;;;;;;6273031;22;20086;-90
2022/08/14 11:13:56;;;;;;;6.18;4.97;;;;;;;;;;6274133;22;20335;-91
2022/08/14 11:16:23;;;;;;;8.05;5.32;;;;;;;;;;6298088;22;19995;-89
2022/08/14 11:18:49;;;;;;;11.23;5.10;;;;;;;;;;6299286;22;20019;-89
2022/08/14 11:21:17;;;;;;;6.28;5.25;;;;;;;;;;6271810;22;20015;-90
2022/08/14 11:23:44;;;;;;;9.48;4.70;;;;;;;;;;6274436;22;20011;-89
2022/08/14 11:26:11;;;;;;;7.95;5.47;;;;;;;;;;6271449;22;20282;-90
2022/08/14 11:28:39;;;;;;;6.05;4.78;;;;;;;;;;6272037;22;20014;-90
2022/08/14 11:31:08;;;;;;;6.72;4.90;;;;;;;;;;6299211;22;20003;-91
2022/08/14 11:33:36;;;;;;;5.32;4.93;;;;;;;;;;6273883;22;20026;-91
2022/08/14 11:36:04;;;;;;;6.30;4.63;;;;;;;;;;6270884;22;20396;-89
2022/08/14 11:38:57;;;;;;;5.68;5.18;;;;;;;;;;6272289;22;20011;-90
2022/08/14 11:41:25;;;;;;;5.25;4.75;;;;;;;;;;6265344;22;20069;-90
2022/08/14 11:43:51;;;;;;;5.30;4.85;;;;;;;;;;6271895;22;20007;-91
2022/08/14 11:46:19;;;;;;;8.07;5.30;;;;;;;;;;6298637;22;20402;-91
2022/08/14 11:48:47;;;;;;;6.30;5.25;;;;;;;;;;6272133;22;20526;-91
2022/08/14 11:51:17;;;;;;;8.48;5.38;;;;;;;;;;6270543;22;20003;-91
2022/08/14 11:53:49;;;;;;;8.40;5.05;;;;;;;;;;6272470;22;20007;-91
2022/08/14 11:56:15;;;;;;;7.82;5.90;;;;;;;;;;6270638;22;20025;-90
2022/08/14 11:58:42;;;;;;;7.50;5.28;;;;;;;;;;6271711;22;20007;-91
2022/08/14 12:01:09;;;;;;;5.70;5.03;;;;;;;;;;6270368;22;20007;-90
2022/08/14 12:03:39;;;;;;;7.07;4.95;;;;;;;;;;6272785;22;20474;-90
2022/08/14 12:06:07;;;;;;;6.25;5.65;;;;;;;;;;6272632;22;20408;-91
2022/08/14 12:08:34;;;;;;;6.80;5.47;;;;;;;;;;6271648;22;20019;-90
2022/08/14 12:11:00;;;;;;;8.35;5.70;;;;;;;;;;6271414;22;20422;-91
2022/08/14 12:13:31;;;;;;;5.93;5.28;;;;;;;;;;6298895;22;20018;-90
2022/08/14 12:15:59;;;;;;;6.43;5.82;;;;;;;;;;6269135;22;20192;-91
2022/08/14 12:18:36;;;;;;;6.72;5.07;;;;;;;;;;6270473;22;20439;-90
2022/08/14 12:21:11;;;;;;;8.25;5.75;;;;;;;;;;6268768;22;20260;-90
2022/08/14 12:23:37;;;;;;;5.93;5.38;;;;;;;;;;6298639;22;20003;-90
2022/08/14 12:26:03;;;;;;;7.70;5.15;;;;;;;;;;6271202;22;20007;-90
2022/08/14 12:28:29;;;;;;;5.78;5.18;;;;;;;;;;6297158;22;20003;-91
2022/08/14 12:30:57;;;;;;;7.03;4.88;;;;;;;;;;6271996;22;20012;-90
2022/08/14 12:33:29;;;;;;;9.80;5.20;;;;;;;;;;6269635;22;20027;-90
2022/08/14 12:35:56;;;;;;;13.00;5.38;;;;;;;;;;6270403;22;20116;-90
2022/08/14 12:38:44;;;;;;;9.98;5.57;;;;;;;;;;6272330;22;20008;-90
2022/08/14 12:41:19;;;;;;;5.82;5.20;;;;;;;;;;6272255;22;20015;-91
2022/08/14 12:43:45;;;;;;;8.82;5.78;;;;;;;;;;6299672;22;20006;-90
2022/08/14 12:46:20;;;;;;;5.78;5.18;;;;;;;;;;6270185;22;20449;-90
2022/08/14 12:48:46;;;;;;;6.05;5.07;;;;;;;;;;6299965;22;20082;-90
2022/08/14 12:51:20;;;;;;;6.85;5.60;;;;;;;;;;6270995;22;20007;-89
2022/08/14 12:53:46;;;;;;;6.80;5.28;;;;;;;;;;6269956;22;20007;-90
2022/08/14 12:56:16;;;;;;;5.65;4.88;;;;;;;;;;6270904;22;20477;-90
2022/08/14 12:58:48;;;;;;;5.90;5.30;;;;;;;;;;6299086;22;20462;-90
2022/08/14 13:01:19;;;;;;;7.70;5.70;;;;;;;;;;6297815;22;20329;-91
2022/08/14 13:03:46;;;;;;;7.43;5.78;;;;;;;;;;6272286;22;20007;-89
2022/08/14 13:06:13;;;;;;;7.47;5.10;;;;;;;;;;6271633;22;20014;-90
2022/08/14 13:08:45;;;;;;;7.68;5.47;;;;;;;;;;6272986;22;20438;-91
2022/08/14 13:11:13;;;;;;;7.63;5.93;;;;;;;;;;6271273;22;20011;-90
2022/08/14 13:13:42;;;;;;;7.68;5.57;;;;;;;;;;6271001;22;20018;-90
2022/08/14 13:16:08;;;;;;;11.75;5.90;;;;;;;;;;6268357;22;20085;-90
2022/08/14 13:18:36;;;;;;;8.45;5.82;;;;;;;;;;6267378;22;20069;-91
2022/08/14 13:21:04;;;;;;;9.70;6.03;;;;;;;;;;6263914;22;20015;-91
2022/08/14 13:23:35;;;;;;;11.60;6.20;;;;;;;;;;6266390;22;20010;-90
2022/08/14 13:26:01;;;;;;;10.95;6.00;;;;;;;;;;6264842;22;20090;-90
2022/08/14 13:28:27;;;;;;;9.95;5.63;;;;;;;;;;6265848;22;20041;-91
2022/08/14 13:30:55;;;;;;;8.85;5.65;;;;;;;;;;6264842;22;20004;-90
2022/08/14 13:33:22;;;;;;;6.78;5.22;;;;;;;;;;6265120;22;20006;-90
2022/08/14 13:35:49;;;;;;;7.88;5.65;;;;;;;;;;6264291;22;20007;-90
2022/08/14 13:38:22;;;;;;;10.25;6.45;;;;;;;;;;6266818;22;20022;-89
2022/08/14 13:40:54;;;;;;;7.25;5.65;;;;;;;;;;6265243;22;20027;-90
2022/08/14 13:43:23;;;;;;;8.70;5.10;;;;;;;;;;6266377;22;20416;-91
2022/08/14 13:45:49;;;;;;;9.20;5.63;;;;;;;;;;6265172;22;20023;-91
2022/08/14 13:48:15;;;;;;;10.38;6.05;;;;;;;;;;6264429;22;20004;-92
2022/08/14 13:50:50;;;;;;;7.97;5.60;;;;;;;;;;6264685;22;20000;-92
2022/08/14 13:53:15;;;;;;;;;;;;;;;;;;6264192;22;20015;-91
2022/08/14 13:55:42;;;;;;;5.65;4.75;;;;;;;;;;6266332;22;19910;-90
2022/08/14 13:58:09;;;;;;;10.10;5.35;;;;;;;;;;6262544;22;20008;-92
2022/08/14 14:00:36;;;;;;;10.38;5.97;;;;;;;;;;6264686;22;20057;-90
2022/08/14 14:03:06;;;;;;;6.57;4.88;;;;;;;;;;6266966;22;20004;-90
2022/08/14 14:05:35;;;;;;;9.13;5.78;;;;;;;;;;6267396;22;20035;-92
2022/08/14 14:08:04;;;;;;;8.32;5.60;;;;;;;;;;6265116;22;20162;-91
2022/08/14 14:10:32;;;;;;;10.93;6.05;;;;;;;;;;6267672;22;20782;-92
2022/08/14 14:12:58;;;;;;;7.65;5.57;;;;;;;;;;6265771;22;20379;-92
2022/08/14 14:15:24;;;;;;;8.50;5.60;;;;;;;;;;6268344;22;19999;-92
2022/08/14 14:17:50;;;;;;;9.85;5.70;;;;;;;;;;6269426;22;20038;-92
2022/08/14 14:20:17;;;;;;;8.48;4.97;;;;;;;;;;6273229;22;20015;-90
2022/08/14 14:22:47;;;;;;;7.38;5.75;;;;;;;;;;6271414;22;20011;-91
2022/08/14 14:25:15;;;;;;;6.75;5.22;;;;;;;;;;6274984;22;20074;-91
2022/08/14 14:27:41;;;;;;;6.10;4.63;;;;;;;;;;6269426;22;20458;-91
2022/08/14 14:30:09;;;;;;;10.88;5.75;;;;;;;;;;6299920;22;20033;-91
2022/08/14 14:32:42;;;;;;;10.45;6.10;;;;;;;;;;6269326;22;20090;-91
2022/08/14 14:35:10;;;;;;;7.22;5.53;;;;;;;;;;6271148;22;20026;-90
2022/08/14 14:37:38;;;;;;;8.48;5.85;;;;;;;;;;6272270;22;20057;-91
2022/08/14 14:40:05;;;;;;;8.52;5.60;;;;;;;;;;6270972;22;20007;-91
2022/08/14 14:42:33;;;;;;;6.90;5.60;;;;;;;;;;6298800;22;20010;-90
2022/08/14 14:45:13;;;;;;;7.57;6.20;;;;;;;;;;6272636;22;20061;-91
2022/08/14 14:47:41;;;;;;;9.93;5.90;;;;;;;;;;6270888;22;20007;-92
2022/08/14 14:50:09;;;;;;;8.93;6.18;;;;;;;;;;6272897;22;20471;-93
2022/08/14 14:52:36;;;;;;;8.27;5.80;;;;;;;;;;6297220;22;20494;-91
2022/08/14 14:55:03;;;;;;;8.10;5.15;;;;;;;;;;6271821;22;20003;-91
2022/08/14 14:57:29;;;;;;;6.53;5.90;;;;;;;;;;6270144;22;20034;-92
2022/08/14 14:59:55;;;;;;;11.52;5.18;;;;;;;;;;6271788;22;20015;-90